TFM - Tactical Decision Aid (Experimental) INFO Settings
 
 

ID: Runway Winds: CIG/VIS Threshold: METAR Board: Map:

KDFW - Dallas/Fort Worth Intl

Updated at: 1843 UTC 24 Oct 2014
Latest TAF at: 1720 UTC 24 Oct 2014

TAF Board

Time1753Z24/19Z24/20Z24/21Z24/22Z24/23Z25/00Z25/01Z25/02Z25/03Z25/04Z25/05Z25/06Z25/07Z
TypeOBSPRVLPRVLPRVLPRVLPRVLPRVLPRVLPRVLPRVLPRVLPRVLPRVLPRVL
VIS10>6>6>6>6>6>6>6>6>6>6>6>6>6
CIG----------------------------
CoverFEWSCTSCTSCTSCTSCTSCTSCTSCTSCTSCTSCTSCTSCT
FltCat--VFRVFRVFRVFRVFRVFRVFRVFRVFRVFRVFRVFRVFR
WX----------------------------
WDir200180180180180180180180180180180180180180
WSpd1010101010101010101010101010
WGst----------------------------
TAF
KDFW 241720Z 2418/2524 18010KT P6SM SCT300

METAR
KDFW 241753Z 20010KT 10SM FEW060 FEW250 26/14 A3014 RMK AO2 SLP200 T02560139 10256 20156 58009

TAF/METAR Board Legend

Potential Impact
  None Marginal Slight Moderate High
Visibility (sm) >5 3≤X≤5 1≤X<3 0.5≤X<1 <0.5
Ceiling (100 ft) >30 10≤X≤30 4≤X<10 2≤X<4 <2
Wind Speed (kt) <10 10≤X<20 20≤X<30 ≥30
Wind Gust (kt) <15 15≤X<25 25≤X<35 ≥35
Weather No Wx Reported VCTS -TS,-FZRA TS,FZRA +TS,+FZRA